Time;durP1;ratioP1;P1;durP2;ratioP2;P2;SDS_P1;SDS_P2;PMS_P1;PMS_P2;Temp;Humidity;BMP_temperature;BMP_pressure;BME280_temperature;BME280_humidity;BME280_pressure;Samples;Min_cycle;Max_cycle;Signal;HPM_P1;HPM_P2
2021/04/21 00:01:13;;;;;;;10.20;9.20;;;;;;;6.95;83.58;98578.03;4830751;29;103110;-88
2021/04/21 00:03:43;;;;;;;10.97;9.83;;;;;;;6.87;83.89;98572.38;4831385;29;102543;-85
2021/04/21 00:06:13;;;;;;;12.07;10.57;;;;;;;6.80;83.67;98573.66;4831068;29;108676;-85
2021/04/21 00:08:40;;;;;;;10.60;9.50;;;;;;;6.85;84.19;98563.72;4827873;29;103246;-86
2021/04/21 00:11:09;;;;;;;9.93;8.37;;;;;;;6.79;84.11;98564.94;4797546;29;103362;-86
2021/04/21 00:13:36;;;;;;;10.07;8.70;;;;;;;6.87;83.73;98569.75;4795247;29;103110;-85
2021/04/21 00:16:05;;;;;;;9.80;8.80;;;;;;;6.92;83.22;98578.19;4814206;29;104328;-87
2021/04/21 00:18:35;;;;;;;10.27;9.10;;;;;;;6.89;83.71;98573.13;4825565;29;103525;-87
2021/04/21 00:21:03;;;;;;;10.20;8.47;;;;;;;6.88;83.62;98568.78;4802585;29;103987;-85
2021/04/21 00:23:34;;;;;;;9.37;7.53;;;;;;;6.90;84.46;98572.19;4817368;29;102997;-85
2021/04/21 00:26:03;;;;;;;10.67;9.57;;;;;;;6.90;84.39;98564.31;4830970;29;103980;-88
2021/04/21 00:28:34;;;;;;;8.97;8.07;;;;;;;6.92;83.89;98563.28;4793584;29;102955;-86
2021/04/21 00:31:04;;;;;;;10.70;9.57;;;;;;;6.74;84.89;98566.13;4800736;29;103179;-84
2021/04/21 00:33:33;;;;;;;8.80;7.23;;;;;;;6.83;84.42;98560.34;4796759;29;103036;-87
2021/04/21 00:36:03;;;;;;;9.83;8.83;;;;;;;6.77;84.54;98568.59;4812296;29;103889;-84
2021/04/21 00:38:30;;;;;;;8.70;7.53;;;;;;;6.82;84.12;98561.31;4812285;29;105931;-87
2021/04/21 00:41:05;;;;;;;9.53;8.53;;;;;;;6.80;84.10;98563.16;4800509;29;103012;-82
2021/04/21 00:43:43;;;;;;;9.33;8.43;;;;;;;6.70;84.14;98559.41;4794774;29;102990;-87
2021/04/21 00:46:13;;;;;;;9.43;7.13;;;;;;;6.67;84.66;98557.81;4793774;29;103964;-87
2021/04/21 00:48:53;;;;;;;9.30;7.00;;;;;;;6.68;84.35;98558.66;4793457;29;103280;-82
2021/04/21 00:51:28;;;;;;;8.67;7.87;;;;;;;6.57;84.75;98555.81;4800023;29;102985;-86
2021/04/21 00:54:03;;;;;;;9.40;7.53;;;;;;;6.51;85.33;98557.00;4807299;29;102866;-86
2021/04/21 00:56:37;;;;;;;9.77;8.57;;;;;;;6.43;85.52;98563.63;4808715;29;104125;-84
2021/04/21 00:59:13;;;;;;;8.73;7.93;;;;;;;6.40;85.83;98557.59;4794556;29;103509;-86
2021/04/21 01:01:42;;;;;;;10.70;9.60;;;;;;;6.27;86.58;98558.41;4792849;29;103668;-85
2021/04/21 01:04:11;;;;;;;10.47;9.30;;;;;;;6.13;86.86;98553.94;4767046;29;103020;-85
2021/04/21 01:06:47;;;;;;;9.70;8.70;;;;;;;6.13;87.42;98548.69;4762351;29;103328;-85
2021/04/21 01:09:20;;;;;;;10.03;8.93;;;;;;;6.13;86.54;98551.31;4773644;29;102944;-86
2021/04/21 01:11:50;;;;;;;9.37;8.37;;;;;;;6.15;86.38;98549.44;4790020;29;102975;-86
2021/04/21 01:14:25;;;;;;;11.03;9.83;;;;;;;5.89;87.53;98542.22;4786240;29;103040;-86
2021/04/21 01:16:58;;;;;;;8.57;7.77;;;;;;;5.98;88.19;98540.88;4785734;29;104078;-86
2021/04/21 01:19:36;;;;;;;10.27;9.13;;;;;;;5.91;87.47;98540.34;4766795;29;104517;-82
2021/04/21 01:22:12;;;;;;;12.10;10.27;;;;;;;5.84;88.17;98537.19;4776097;29;102807;-85
2021/04/21 01:24:45;;;;;;;8.00;7.20;;;;;;;5.94;87.93;98528.84;4794363;29;103263;-86
2021/04/21 01:27:16;;;;;;;11.03;9.57;;;;;;;5.91;87.88;98535.09;4785707;29;103342;-87
2021/04/21 01:29:48;;;;;;;9.90;8.83;;;;;;;5.89;87.31;98530.88;4760230;29;104325;-86
2021/04/21 01:32:18;;;;;;;8.17;7.33;;;;;;;5.98;87.16;98533.00;4773985;29;103570;-87
2021/04/21 01:34:47;;;;;;;7.33;6.60;;;;;;;5.97;86.78;98537.41;4776434;29;102969;-86
2021/04/21 01:37:18;;;;;;;7.80;7.00;;;;;;;5.88;86.96;98530.03;4776721;29;105069;-85
2021/04/21 01:39:54;;;;;;;9.73;8.07;;;;;;;5.89;86.43;98536.97;4779541;29;103970;-86
2021/04/21 01:42:24;;;;;;;9.17;7.90;;;;;;;5.90;86.39;98536.03;4792465;29;103008;-86
2021/04/21 01:44:55;;;;;;;9.67;8.13;;;;;;;5.90;86.15;98532.56;4798377;29;103085;-87
2021/04/21 01:47:23;;;;;;;12.47;10.23;;;;;;;5.38;88.68;98540.66;4796966;29;103021;-82
2021/04/21 01:50:02;;;;;;;13.60;9.67;;;;;;;5.13;91.10;98535.03;4796414;29;103127;-86
2021/04/21 01:52:54;;;;;;;12.50;9.33;;;;;;;5.12;91.84;98539.41;4783282;29;104478;-85
2021/04/21 01:55:47;;;;;;;9.53;8.33;;;;;;;5.33;90.52;98532.19;4815058;29;103015;-84
2021/04/21 01:58:24;;;;;;;11.77;10.57;;;;;;;5.28;90.52;98540.28;4797134;29;103936;-86
2021/04/21 02:01:00;;;;;;;11.50;8.57;;;;;;;5.46;89.24;98542.84;4793755;29;104741;-78
2021/04/21 02:03:32;;;;;;;7.43;6.40;;;;;;;5.59;87.54;98543.84;4800558;29;102966;-87
2021/04/21 02:06:49;;;;;;;8.00;7.03;;;;;;;5.56;88.06;98544.03;4803610;29;102984;-81
2021/04/21 02:09:37;;;;;;;12.30;10.23;;;;;;;5.43;87.40;98546.47;4738432;29;103353;-86
2021/04/21 02:12:13;;;;;;;13.47;9.83;;;;;;;5.02;89.96;98543.47;4776791;29;103707;-84
2021/04/21 02:14:50;;;;;;;13.13;9.13;;;;;;;4.88;91.99;98545.94;4779449;29;102618;-86
2021/04/21 02:17:24;;;;;;;20.33;12.77;;;;;;;4.92;92.53;98546.59;4806999;29;102919;-85
2021/04/21 02:20:00;;;;;;;18.37;11.97;;;;;;;5.11;91.73;98547.34;4799338;29;103265;-85
2021/04/21 02:22:36;;;;;;;12.47;10.10;;;;;;;5.23;90.72;98544.94;4778361;29;106307;-87
2021/04/21 02:25:13;;;;;;;12.70;10.23;;;;;;;5.37;90.21;98553.81;4812396;29;102593;-86
2021/04/21 02:27:52;;;;;;;14.73;11.90;;;;;;;5.30;89.71;98547.22;4801738;29;103130;-85
2021/04/21 02:30:29;;;;;;;11.77;10.43;;;;;;;5.26;90.12;98542.16;4794635;29;104635;-85
2021/04/21 02:33:11;;;;;;;13.40;11.60;;;;;;;5.27;89.93;98548.25;4795354;29;103124;-87
2021/04/21 02:35:42;;;;;;;13.37;10.67;;;;;;;5.14;89.89;98553.25;4795738;29;102894;-86
2021/04/21 02:38:23;;;;;;;17.93;14.20;;;;;;;5.04;91.84;98545.97;4795681;29;103183;-84
2021/04/21 02:41:08;;;;;;;17.93;11.70;;;;;;;5.08;91.91;98548.34;4769142;29;103276;-86
2021/04/21 02:44:04;;;;;;;12.43;10.03;;;;;;;5.17;90.72;98547.88;4776836;29;104953;-83
2021/04/21 02:46:37;;;;;;;11.53;9.90;;;;;;;5.24;89.52;98559.72;4776967;29;102717;-86
2021/04/21 02:49:20;;;;;;;12.70;9.80;;;;;;;5.15;90.09;98552.34;4776994;29;102542;-83
2021/04/21 02:51:54;;;;;;;16.20;12.33;;;;;;;4.96;90.88;98551.63;4791693;29;103166;-85
2021/04/21 02:54:29;;;;;;;15.63;12.87;;;;;;;4.81;92.90;98541.09;4811292;29;106446;-84
2021/04/21 02:57:00;;;;;;;16.20;14.50;;;;;;;4.65;95.34;98551.50;4799036;29;102895;-87
2021/04/21 02:59:34;;;;;;;19.37;14.83;;;;;;;4.74;94.62;98556.28;4795398;29;102747;-84
2021/04/21 03:02:06;;;;;;;13.17;11.33;;;;;;;4.81;94.28;98544.56;4795316;29;103197;-86
2021/04/21 03:04:47;;;;;;;11.60;10.27;;;;;;;4.91;92.88;98548.38;4795445;29;104423;-84
2021/04/21 03:07:19;;;;;;;16.87;13.33;;;;;;;4.92;91.21;98541.38;4794703;29;103248;-86
2021/04/21 03:09:51;;;;;;;15.80;12.63;;;;;;;4.72;91.55;98547.63;4796113;29;102990;-87
2021/04/21 03:12:23;;;;;;;13.37;11.17;;;;;;;4.81;91.37;98539.31;4776515;29;104451;-85
2021/04/21 03:14:55;;;;;;;11.43;9.07;;;;;;;4.86;90.33;98539.91;4781239;29;104927;-86
2021/04/21 03:17:22;;;;;;;15.37;11.80;;;;;;;4.91;89.21;98539.69;4793350;29;103002;-86
2021/04/21 03:19:55;;;;;;;12.83;10.70;;;;;;;4.94;88.99;98534.31;4798196;29;102974;-84
2021/04/21 03:22:23;;;;;;;14.20;11.57;;;;;;;4.88;89.22;98545.94;4797748;29;103076;-83
2021/04/21 03:24:57;;;;;;;15.60;11.87;;;;;;;4.31;92.04;98541.03;4813496;29;106740;-86
2021/04/21 03:27:30;;;;;;;15.50;11.43;;;;;;;4.44;92.18;98540.34;4800587;29;103032;-85
2021/04/21 03:30:02;;;;;;;14.93;12.80;;;;;;;4.51;91.96;98541.75;4795130;29;102734;-84
2021/04/21 03:32:35;;;;;;;15.43;13.10;;;;;;;4.40;92.08;98538.81;4794481;29;104055;-86
2021/04/21 03:35:05;;;;;;;14.40;12.00;;;;;;;4.40;92.80;98532.72;4794050;29;103359;-87
2021/04/21 03:37:47;;;;;;;15.27;10.93;;;;;;;4.46;92.10;98538.47;4794080;29;102645;-83
2021/04/21 03:40:15;;;;;;;16.30;12.97;;;;;;;4.39;91.56;98528.41;4801500;29;103024;-86
2021/04/21 03:42:44;;;;;;;17.17;14.00;;;;;;;4.44;92.72;98535.09;4792982;29;103819;-82
2021/04/21 03:45:12;;;;;;;16.17;12.50;;;;;;;4.53;92.02;98536.41;4794062;29;103417;-81
2021/04/21 03:47:41;;;;;;;17.00;14.23;;;;;;;4.44;92.07;98534.25;4795044;29;103007;-85
2021/04/21 03:50:10;;;;;;;17.60;15.70;;;;;;;4.48;93.91;98535.81;4793482;29;103070;-82
2021/04/21 03:52:40;;;;;;;21.77;16.73;;;;;;;4.34;95.54;98530.41;4795595;29;104197;-81
2021/04/21 03:55:10;;;;;;;20.43;16.90;;;;;;;4.28;97.27;98530.72;4812592;29;103782;-75
2021/04/21 03:57:42;;;;;;;22.50;17.17;;;;;;;4.32;96.91;98520.03;4800918;29;103059;-80
2021/04/21 04:00:15;;;;;;;19.10;15.30;;;;;;;4.25;96.41;98523.03;4795387;29;103020;-86
2021/04/21 04:02:47;;;;;;;23.23;17.03;;;;;;;4.36;96.43;98526.78;4793593;29;103983;-85
2021/04/21 04:05:17;;;;;;;24.37;16.33;;;;;;;4.31;97.39;98517.50;4777139;29;104306;-80
2021/04/21 04:07:46;;;;;;;18.90;13.53;;;;;;;4.37;97.97;98522.41;4794167;29;102786;-80
2021/04/21 04:10:14;;;;;;;25.63;16.40;;;;;;;4.27;98.19;98521.16;4789488;29;103046;-80
2021/04/21 04:12:44;;;;;;;21.47;15.90;;;;;;;4.32;97.65;98524.41;4797012;29;103389;-80
2021/04/21 04:15:14;;;;;;;20.07;16.90;;;;;;;4.33;98.42;98531.31;4788863;29;103798;-79
2021/04/21 04:17:46;;;;;;;21.73;18.37;;;;;;;4.33;98.48;98532.19;4792887;29;102922;-80
2021/04/21 04:20:15;;;;;;;26.03;19.73;;;;;;;4.31;98.75;98535.78;4792840;29;103048;-80
2021/04/21 04:22:48;;;;;;;23.83;19.40;;;;;;;4.28;98.55;98528.09;4778688;29;104598;-80
2021/04/21 04:25:16;;;;;;;22.77;19.50;;;;;;;4.18;98.85;98532.97;4777235;29;104242;-81
2021/04/21 04:27:44;;;;;;;24.00;20.07;;;;;;;3.93;100.00;98543.72;4787958;29;102701;-80
2021/04/21 04:30:13;;;;;;;23.47;16.67;;;;;;;3.92;100.00;98539.44;4792211;29;103162;-80
2021/04/21 04:32:43;;;;;;;20.43;16.67;;;;;;;3.88;100.00;98545.72;4773575;29;103742;-83
2021/04/21 04:35:12;;;;;;;24.33;16.87;;;;;;;3.89;100.00;98546.59;4792845;29;104157;-82
2021/04/21 04:37:41;;;;;;;19.67;15.70;;;;;;;4.10;100.00;98549.00;4790383;29;102979;-82
2021/04/21 04:40:11;;;;;;;20.33;16.40;;;;;;;4.28;98.67;98538.56;4787842;29;103044;-82
2021/04/21 04:42:38;;;;;;;22.97;17.77;;;;;;;4.29;97.13;98546.34;4777065;29;103561;-82
2021/04/21 04:45:08;;;;;;;19.67;16.30;;;;;;;4.41;97.39;98550.09;4793578;29;103432;-82
2021/04/21 04:47:42;;;;;;;24.00;19.77;;;;;;;4.31;96.91;98554.09;4794404;29;102990;-82
2021/04/21 04:50:11;;;;;;;24.00;18.37;;;;;;;4.36;97.98;98549.50;4796553;29;103303;-82
2021/04/21 04:52:41;;;;;;;23.03;19.27;;;;;;;4.46;97.65;98548.13;4784793;29;103589;-83
2021/04/21 04:55:11;;;;;;;23.23;18.17;;;;;;;4.45;97.23;98546.41;4814864;29;104412;-83
2021/04/21 04:57:42;;;;;;;26.60;18.13;;;;;;;4.35;98.62;98555.66;4785751;29;103010;-84
2021/04/21 05:00:11;;;;;;;24.50;18.10;;;;;;;4.36;99.17;98552.94;4786958;29;103541;-84
2021/04/21 05:02:42;;;;;;;23.83;19.10;;;;;;;4.43;99.22;98558.75;4784116;29;104096;-83
2021/04/21 05:05:11;;;;;;;22.43;18.10;;;;;;;4.55;97.97;98558.97;4778631;29;105185;-83
2021/04/21 05:07:50;;;;;;;25.33;19.67;;;;;;;4.72;97.51;98565.09;4794244;29;103355;-83
2021/04/21 05:10:23;;;;;;;30.50;21.53;;;;;;;4.76;97.48;98559.66;4789901;29;102871;-83
2021/04/21 05:12:52;;;;;;;21.13;16.37;;;;;;;4.96;96.66;98567.34;4812967;29;104014;-82
2021/04/21 05:15:49;;;;;;;19.57;15.77;;;;;;;5.16;95.48;98567.16;4806449;29;103744;-82
2021/04/21 05:18:55;;;;;;;21.73;16.30;;;;;;;5.35;94.25;98558.28;4765485;29;103230;-78
2021/04/21 05:21:55;;;;;;;21.13;16.30;;;;;;;5.45;92.89;98562.09;4790041;29;103078;-80
2021/04/21 05:25:02;;;;;;;19.20;14.70;;;;;;;5.59;91.94;98578.78;4799437;29;103266;-81
2021/04/21 05:27:57;;;;;;;26.97;20.43;;;;;;;5.37;94.65;98570.38;4801443;29;103795;-77
2021/04/21 05:31:09;;;;;;;27.30;21.37;;;;;;;5.21;96.00;98586.06;4783626;29;102886;-79
2021/04/21 05:34:11;;;;;;;28.17;21.97;;;;;;;5.35;96.88;98587.13;4800549;29;104638;-77
2021/04/21 05:37:31;;;;;;;20.80;17.50;;;;;;;5.69;94.86;98587.00;4764342;29;104197;-77
2021/04/21 05:40:47;;;;;;;25.37;18.70;;;;;;;5.89;93.25;98586.81;4805687;29;103930;-76
2021/04/21 05:44:22;;;;;;;27.57;21.30;;;;;;;6.03;92.44;98592.13;4802903;29;103161;-80
2021/04/21 05:47:37;;;;;;;24.97;20.77;;;;;;;6.18;91.50;98587.78;4802396;29;103304;-76
2021/04/21 05:50:47;;;;;;;20.70;17.73;;;;;;;6.35;91.51;98593.78;4742967;29;103916;-77
2021/04/21 05:53:37;;;;;;;18.43;16.43;;;;;;;6.57;90.29;98587.31;4802853;29;103705;-77
2021/04/21 05:56:40;;;;;;;24.87;19.23;;;;;;;6.53;90.06;98591.88;4797962;29;103702;-75
2021/04/21 05:59:43;;;;;;;19.73;16.13;;;;;;;6.63;89.02;98592.19;4778872;29;103514;-78
2021/04/21 06:02:12;;;;;;;24.73;19.10;;;;;;;6.78;88.76;98592.16;4771462;29;104183;-77
2021/04/21 06:04:39;;;;;;;25.30;20.70;;;;;;;6.38;90.33;98598.00;4802909;29;105227;-75
2021/04/21 06:07:08;;;;;;;26.27;20.47;;;;;;;6.63;90.44;98593.03;4803205;29;102937;-75
2021/04/21 06:09:36;;;;;;;21.03;18.70;;;;;;;6.83;89.77;98597.13;4801927;29;103020;-75
2021/04/21 06:12:08;;;;;;;29.23;21.60;;;;;;;6.97;88.78;98595.38;4801917;29;111389;-76
2021/04/21 06:14:35;;;;;;;23.77;19.73;;;;;;;7.17;87.87;98594.19;4801371;29;103748;-75
2021/04/21 06:17:03;;;;;;;25.80;20.90;;;;;;;7.13;87.95;98597.09;4797673;29;102694;-77
2021/04/21 06:19:32;;;;;;;25.63;18.77;;;;;;;7.28;87.56;98594.38;4802132;29;102842;-76
2021/04/21 06:21:59;;;;;;;26.00;20.87;;;;;;;7.42;86.28;98594.38;4781199;29;103496;-76
2021/04/21 06:24:29;;;;;;;27.37;22.57;;;;;;;7.41;86.02;98594.50;4799864;29;106959;-75
2021/04/21 06:27:06;;;;;;;23.30;20.80;;;;;;;7.49;84.99;98600.94;4784034;29;103100;-75
2021/04/21 06:29:34;;;;;;;26.60;19.97;;;;;;;7.73;84.40;98600.38;4784503;29;103160;-76
2021/04/21 06:32:03;;;;;;;27.67;21.17;;;;;;;7.87;83.70;98603.00;4801198;29;104509;-74
2021/04/21 06:34:31;;;;;;;21.23;17.80;;;;;;;7.90;83.72;98595.75;4799480;29;103833;-75
2021/04/21 06:36:59;;;;;;;26.93;19.50;;;;;;;8.11;82.43;98598.81;4789390;29;103172;-76
2021/04/21 06:39:31;;;;;;;27.07;20.93;;;;;;;8.28;82.06;98595.97;4795433;29;102804;-75
2021/04/21 06:42:00;;;;;;;27.73;21.03;;;;;;;8.47;81.53;98604.38;4798836;29;104198;-75
2021/04/21 06:44:31;;;;;;;26.97;21.27;;;;;;;8.54;81.58;98607.44;4800914;29;104485;-77
2021/04/21 06:46:59;;;;;;;19.97;16.23;;;;;;;8.85;81.05;98599.19;4801607;29;103089;-75
2021/04/21 06:49:26;;;;;;;23.70;20.00;;;;;;;8.62;80.34;98608.63;4786127;29;102975;-75
2021/04/21 06:51:54;;;;;;;19.33;16.83;;;;;;;8.97;80.23;98610.72;4785407;29;105156;-77
2021/04/21 06:54:22;;;;;;;22.20;17.43;;;;;;;9.19;79.51;98606.53;4800975;29;103759;-75
2021/04/21 06:56:49;;;;;;;22.90;18.23;;;;;;;9.23;79.16;98601.91;4801075;29;102865;-78
2021/04/21 06:59:20;;;;;;;19.80;15.73;;;;;;;9.40;78.15;98606.00;4801928;29;103073;-76
2021/04/21 07:01:50;;;;;;;24.00;20.50;;;;;;;9.22;78.09;98606.31;4784033;29;106585;-76
2021/04/21 07:04:19;;;;;;;26.03;20.90;;;;;;;9.37;77.49;98599.16;4794568;29;104436;-76
2021/04/21 07:06:49;;;;;;;25.77;20.33;;;;;;;9.51;77.09;98596.41;4803462;29;102934;-76
2021/04/21 07:09:19;;;;;;;28.90;21.17;;;;;;;9.65;76.39;98593.66;4805287;29;104490;-76
2021/04/21 07:11:57;;;;;;;28.93;20.63;;;;;;;9.68;76.24;98598.72;4794584;29;103526;-76
2021/04/21 07:14:28;;;;;;;24.37;20.53;;;;;;;9.88;75.62;98605.19;4786237;29;106288;-78
2021/04/21 07:16:58;;;;;;;22.93;20.17;;;;;;;10.05;75.50;98607.47;4795866;29;104105;-77
2021/04/21 07:19:27;;;;;;;27.10;18.73;;;;;;;10.35;74.17;98604.47;4796268;29;103133;-78
2021/04/21 07:21:55;;;;;;;25.00;21.53;;;;;;;10.62;73.50;98607.72;4784383;29;105877;-81
2021/04/21 07:24:32;;;;;;;22.27;19.97;;;;;;;10.72;73.26;98603.44;4798437;29;104323;-81
2021/04/21 07:27:08;;;;;;;25.80;19.90;;;;;;;10.98;72.68;98607.63;4792681;29;103047;-83
2021/04/21 07:29:37;;;;;;;25.47;19.80;;;;;;;11.35;71.36;98602.19;4793950;29;103210;-81
2021/04/21 07:32:18;;;;;;;20.83;18.67;;;;;;;11.48;70.04;98611.69;4791746;29;103760;-82
2021/04/21 07:35:04;;;;;;;23.30;19.13;;;;;;;11.53;70.75;98611.38;4793281;29;104817;-81
2021/04/21 07:37:33;;;;;;;21.23;17.47;;;;;;;12.14;69.80;98610.91;4787837;29;102953;-82
2021/04/21 07:40:19;;;;;;;22.93;20.40;;;;;;;12.26;68.65;98608.22;4786382;29;102947;-83
2021/04/21 07:42:46;;;;;;;22.80;19.40;;;;;;;12.58;67.49;98604.66;4792713;29;104218;-85
2021/04/21 07:45:14;;;;;;;18.87;16.50;;;;;;;12.89;66.63;98604.75;4793140;29;104244;-82
2021/04/21 07:47:42;;;;;;;29.10;21.27;;;;;;;12.94;66.26;98606.06;4792576;29;103284;-82
2021/04/21 07:50:10;;;;;;;23.80;20.37;;;;;;;12.50;65.28;98606.22;4792646;29;103247;-82
2021/04/21 07:52:40;;;;;;;25.53;20.43;;;;;;;12.17;66.35;98612.47;4796523;29;103902;-83
2021/04/21 07:55:15;;;;;;;23.93;20.37;;;;;;;12.60;66.11;98609.84;4781625;29;105783;-83
2021/04/21 07:57:44;;;;;;;19.63;16.80;;;;;;;13.25;65.29;98607.00;4793603;29;103894;-81
2021/04/21 08:00:25;;;;;;;21.60;19.40;;;;;;;13.47;62.79;98611.34;4777235;29;103127;-82
2021/04/21 08:02:53;;;;;;;28.57;20.70;;;;;;;13.78;63.39;98610.41;4775603;29;106463;-84
2021/04/21 08:05:22;;;;;;;22.97;19.97;;;;;;;13.99;61.54;98602.38;4792364;29;103016;-78
2021/04/21 08:07:55;;;;;;;24.50;20.30;;;;;;;13.49;62.34;98614.72;4790866;29;102660;-79
2021/04/21 08:10:29;;;;;;;21.83;18.90;;;;;;;14.30;61.60;98607.50;4784305;29;103238;-78
2021/04/21 08:12:58;;;;;;;20.97;18.87;;;;;;;14.84;60.70;98606.22;4773142;29;103261;-78
2021/04/21 08:15:29;;;;;;;26.13;19.53;;;;;;;14.91;59.38;98612.63;4762790;29;106041;-78
2021/04/21 08:17:58;;;;;;;24.33;20.53;;;;;;;14.17;60.37;98606.06;4780790;29;103295;-78
2021/04/21 08:20:29;;;;;;;23.03;20.60;;;;;;;14.28;60.13;98612.13;4790173;29;102654;-78
2021/04/21 08:22:59;;;;;;;20.07;18.07;;;;;;;14.56;60.33;98612.34;4795779;29;103978;-78
2021/04/21 08:25:29;;;;;;;19.30;17.27;;;;;;;15.87;58.24;98610.69;4793464;29;103418;-81
2021/04/21 08:27:57;;;;;;;18.73;16.70;;;;;;;16.12;57.27;98611.84;4797245;29;103188;-81
2021/04/21 08:30:27;;;;;;;21.23;18.37;;;;;;;16.06;55.79;98607.09;4799357;29;103334;-78
2021/04/21 08:32:55;;;;;;;23.00;20.10;;;;;;;16.11;55.62;98604.84;4796008;29;103836;-81
2021/04/21 08:35:23;;;;;;;20.67;18.30;;;;;;;16.15;55.54;98611.53;4795401;29;106558;-80
2021/04/21 08:37:50;;;;;;;18.97;16.77;;;;;;;17.31;55.85;98607.09;4798995;29;103229;-80
2021/04/21 08:40:20;;;;;;;19.17;16.90;;;;;;;18.10;51.26;98609.63;4796071;29;103314;-79
2021/04/21 08:42:55;;;;;;;20.33;18.10;;;;;;;16.73;51.94;98606.72;4799445;29;104671;-79
2021/04/21 08:45:23;;;;;;;20.87;18.67;;;;;;;17.52;52.86;98604.03;4805773;29;104689;-79
2021/04/21 08:47:50;;;;;;;18.13;15.80;;;;;;;18.49;50.26;98603.63;4812876;29;103026;-80
2021/04/21 08:50:18;;;;;;;17.83;16.03;;;;;;;18.73;51.22;98607.31;4798811;29;103379;-80
2021/04/21 08:52:49;;;;;;;21.80;17.73;;;;;;;19.02;48.14;98605.03;4796861;29;104499;-79
2021/04/21 08:55:19;;;;;;;19.77;17.77;;;;;;;18.91;47.03;98603.53;4811581;29;111516;-80
2021/04/21 08:57:47;;;;;;;23.50;17.87;;;;;;;19.45;46.88;98603.91;4784964;29;102684;-80
2021/04/21 09:00:18;;;;;;;18.65;16.75;;;;;;;19.54;47.80;98597.50;4795415;29;103051;-80
2021/04/21 09:02:45;;;;;;;20.90;18.30;;;;;;;18.42;46.82;98599.03;4795462;29;103841;-80
2021/04/21 09:05:16;;;;;;;15.98;14.30;;;;;;;19.80;47.33;98595.47;4778104;29;104005;-80
2021/04/21 09:07:44;;;;;;;18.92;17.02;;;;;;;19.81;44.42;98609.72;4785654;29;102932;-80
2021/04/21 09:10:14;;;;;;;19.77;17.67;;;;;;;19.36;46.64;98602.19;4788583;29;102763;-80
2021/04/21 09:12:41;;;;;;;17.75;16.10;;;;;;;19.45;46.38;98603.91;4760040;29;105240;-80
2021/04/21 09:15:14;;;;;;;15.68;14.10;;;;;;;20.18;44.91;98597.34;4760558;29;107129;-80
2021/04/21 09:17:46;;;;;;;18.23;16.40;;;;;;;20.72;44.98;98600.97;4768087;29;103120;-81
2021/04/21 09:20:15;;;;;;;17.23;15.48;;;;;;;19.65;45.03;98602.53;4802676;29;103120;-80
2021/04/21 09:23:03;;;;;;;17.42;15.73;;;;;;;20.32;43.39;98603.88;4797996;29;103909;-80
2021/04/21 09:25:32;;;;;;;19.05;17.15;;;;;;;19.76;44.59;98601.34;4800427;29;105149;-80
2021/04/21 09:27:59;;;;;;;18.60;16.80;;;;;;;20.74;45.32;98600.81;4798321;29;103015;-80
2021/04/21 09:30:27;;;;;;;18.25;16.35;;;;;;;21.02;42.49;98593.06;4783981;29;102758;-80
2021/04/21 09:32:57;;;;;;;15.98;14.18;;;;;;;21.28;43.59;98586.31;4801098;29;104094;-81
2021/04/21 09:35:27;;;;;;;16.90;15.25;;;;;;;19.16;42.56;98595.50;4793491;29;107163;-80
2021/04/21 09:38:03;;;;;;;14.55;13.05;;;;;;;19.20;43.95;98594.19;4794880;29;103247;-80
2021/04/21 09:40:36;;;;;;;14.05;12.65;;;;;;;19.38;44.79;98586.78;4798208;29;103222;-80
2021/04/21 09:43:04;;;;;;;13.43;12.13;;;;;;;21.00;41.36;98589.69;4796657;29;104013;-80
2021/04/21 09:45:43;;;;;;;12.95;11.75;;;;;;;21.37;41.92;98579.84;4801925;29;103182;-80
2021/04/21 09:48:14;;;;;;;16.05;14.48;;;;;;;19.41;43.20;98587.34;4802946;29;103084;-80
2021/04/21 09:50:43;;;;;;;12.23;11.13;;;;;;;19.90;45.00;98582.69;4799338;29;103264;-80
2021/04/21 09:53:25;;;;;;;11.52;10.43;;;;;;;19.52;43.56;98578.09;4799586;29;103828;-81
2021/04/21 09:56:20;;;;;;;12.63;11.32;;;;;;;18.73;43.08;98581.41;4798142;29;103541;-80
2021/04/21 09:58:50;;;;;;;14.35;12.85;;;;;;;19.91;42.29;98578.16;4801902;29;103001;-80
2021/04/21 10:01:26;;;;;;;11.10;10.02;;;;;;;20.97;41.24;98572.09;4798959;29;103133;-80
2021/04/21 10:04:15;;;;;;;13.00;11.77;;;;;;;20.71;38.37;98567.09;4786777;29;104866;-80
2021/04/21 10:06:48;;;;;;;11.77;10.68;;;;;;;21.07;39.65;98567.38;4799215;29;104407;-81
2021/04/21 10:09:26;;;;;;;14.65;12.95;;;;;;;19.36;41.12;98572.75;4787437;29;103878;-80
2021/04/21 10:12:12;;;;;;;12.45;11.27;;;;;;;20.46;40.96;98570.09;4802869;29;103248;-80
2021/04/21 10:14:40;;;;;;;14.18;12.88;;;;;;;19.99;38.99;98570.94;4787116;29;106728;-80
2021/04/21 10:17:08;;;;;;;13.00;11.80;;;;;;;20.25;39.00;98576.06;4783242;29;105365;-80
2021/04/21 10:19:37;;;;;;;15.63;14.20;;;;;;;18.81;39.92;98573.38;4797363;29;103267;-80
2021/04/21 10:22:04;;;;;;;14.57;13.27;;;;;;;19.24;39.86;98563.38;4794956;29;103469;-80
2021/04/21 10:24:31;;;;;;;14.55;13.07;;;;;;;19.58;39.40;98562.19;4784003;29;104279;-80
2021/04/21 10:26:59;;;;;;;10.70;9.70;;;;;;;20.69;39.58;98563.72;4786699;29;104909;-80
2021/04/21 10:29:27;;;;;;;12.07;10.90;;;;;;;20.81;39.05;98561.47;4801162;29;103148;-80
2021/04/21 10:31:55;;;;;;;12.85;11.65;;;;;;;20.15;38.28;98564.69;4798489;29;103310;-80
2021/04/21 10:34:22;;;;;;;13.75;12.00;;;;;;;20.29;39.06;98560.47;4801368;29;103455;-81
2021/04/21 10:36:51;;;;;;;12.80;11.52;;;;;;;20.81;38.82;98556.09;4800656;29;103733;-81
2021/04/21 10:39:32;;;;;;;12.05;10.95;;;;;;;20.47;37.96;98559.19;4800120;29;102887;-84
2021/04/21 10:42:06;;;;;;;11.20;10.10;;;;;;;21.46;36.88;98550.22;4799012;29;103001;-84
2021/04/21 10:44:34;;;;;;;11.88;10.77;;;;;;;21.72;38.02;98542.56;4802208;29;103904;-86
2021/04/21 10:47:08;;;;;;;10.32;9.32;;;;;;;22.12;37.11;98547.47;4800251;29;103662;-87
2021/04/21 10:49:42;;;;;;;9.15;8.25;;;;;;;22.01;36.21;98545.25;4783423;29;102856;-91
2021/04/21 10:52:12;;;;;;;9.05;8.15;;;;;;;21.87;37.86;98543.41;4799055;29;104016;-87
2021/04/21 10:54:39;;;;;;;11.98;10.88;;;;;;;21.33;37.44;98545.47;4800436;29;105309;-89
2021/04/21 10:57:34;;;;;;;11.70;10.60;;;;;;;20.53;37.56;98542.38;4803128;29;103588;-90
2021/04/21 11:00:10;;;;;;;11.52;10.43;;;;;;;20.06;39.20;98529.03;4748109;29;103353;-87
2021/04/21 11:02:49;;;;;;;12.02;10.93;;;;;;;20.33;38.21;98530.41;4796274;29;102865;-90
2021/04/21 11:05:18;;;;;;;11.65;10.55;;;;;;;20.36;40.61;98523.84;4793646;29;103380;-88
2021/04/21 11:07:48;;;;;;;10.88;9.77;;;;;;;20.83;36.86;98529.91;4793498;29;103299;-91
2021/04/21 11:10:47;;;;;;;11.77;10.57;;;;;;;19.96;37.37;98536.44;4794069;29;103050;-82
2021/04/21 11:13:36;;;;;;;9.73;8.88;;;;;;;20.35;35.98;98524.88;4756633;29;102908;-83
2021/04/21 11:16:08;;;;;;;10.38;9.38;;;;;;;20.08;37.01;98523.47;4786812;29;106172;-82
2021/04/21 11:18:39;;;;;;;10.85;9.85;;;;;;;20.75;35.66;98519.22;4770928;29;105014;-81
2021/04/21 11:21:09;;;;;;;9.90;7.63;;;;;;;21.79;35.16;98520.13;4782397;29;102960;-78
2021/04/21 11:23:56;;;;;;;9.82;8.88;;;;;;;22.03;33.82;98518.19;4790473;29;103164;-80
2021/04/21 11:26:39;;;;;;;10.35;9.23;;;;;;;21.92;34.10;98514.13;4782789;29;103998;-81
2021/04/21 11:29:12;;;;;;;10.43;9.43;;;;;;;22.43;33.45;98513.09;4789450;29;104937;-83
2021/04/21 11:32:12;;;;;;;10.27;9.38;;;;;;;22.30;32.66;98512.09;4787801;29;103108;-84
2021/04/21 11:34:43;;;;;;;11.57;10.55;;;;;;;21.74;33.47;98510.94;4772217;29;103098;-84
2021/04/21 11:37:14;;;;;;;10.23;9.32;;;;;;;21.88;33.83;98508.28;4766152;29;106644;-86
2021/04/21 11:40:10;;;;;;;9.93;9.00;;;;;;;22.13;34.57;98508.81;4772834;29;103982;-83
2021/04/21 11:42:46;;;;;;;9.95;8.95;;;;;;;22.74;34.08;98503.91;4776157;29;103270;-84
2021/04/21 11:45:38;;;;;;;12.13;11.05;;;;;;;22.15;34.07;98498.69;4768152;29;103237;-84
2021/04/21 11:48:20;;;;;;;10.82;9.88;;;;;;;22.98;34.68;98492.75;4792885;29;103300;-83
2021/04/21 11:50:49;;;;;;;9.38;8.57;;;;;;;23.42;33.76;98493.31;4795451;29;103906;-84